Time;durP1;ratioP1;P1;durP2;ratioP2;P2;SDS_P1;SDS_P2;PMS_P1;PMS_P2;Temp;Humidity;BMP_temperature;BMP_pressure;BME280_temperature;BME280_humidity;BME280_pressure;Samples;Min_cycle;Max_cycle;Signal;HPM_P1;HPM_P2
2021/04/23 00:00:36;;;;;;;11.30;4.03;;;;;;;6.51;68.84;101412.28;3573369;40;20070;-42
2021/04/23 00:03:29;;;;;;;;;;;;;;;6.46;69.52;101411.16;3575024;40;20053;-43
2021/04/23 00:06:10;;;;;;;11.82;4.88;;;;;;;6.36;70.25;101409.81;3574516;40;19950;-43
2021/04/23 00:08:37;;;;;;;8.45;4.18;;;;;;;6.43;70.42;101406.81;3574603;40;20153;-45
2021/04/23 00:11:07;;;;;;;13.63;5.28;;;;;;;6.31;70.97;101411.22;3573819;40;20093;-44
2021/04/23 00:13:35;;;;;;;9.43;5.18;;;;;;;6.20;71.26;101415.75;3574080;40;20085;-48
2021/04/23 00:16:03;;;;;;;13.30;5.70;;;;;;;6.16;71.15;101413.81;3574452;40;20060;-47
2021/04/23 00:18:30;;;;;;;13.13;4.63;;;;;;;6.24;71.46;101415.13;3574254;40;20060;-43
2021/04/23 00:21:12;;;;;;;13.45;5.40;;;;;;;6.12;72.37;101414.44;3541945;40;20093;-43
2021/04/23 00:23:40;;;;;;;11.90;5.28;;;;;;;5.88;72.69;101413.91;3542396;40;20090;-43
2021/04/23 00:26:08;;;;;;;13.60;4.80;;;;;;;5.83;72.66;101420.41;3542608;40;20110;-42
2021/04/23 00:28:36;;;;;;;12.68;5.40;;;;;;;5.76;73.56;101415.75;3542594;40;20101;-46
2021/04/23 00:31:04;;;;;;;12.60;4.97;;;;;;;5.68;74.02;101411.91;3542405;40;20082;-43
2021/04/23 00:33:30;;;;;;;12.65;5.70;;;;;;;5.53;74.66;101404.28;3541890;40;20072;-42
2021/04/23 00:35:57;;;;;;;12.85;5.28;;;;;;;5.63;74.47;101416.72;3542229;40;20090;-43
2021/04/23 00:38:26;;;;;;;13.98;5.03;;;;;;;5.54;74.36;101406.91;3534020;40;20103;-42
2021/04/23 00:41:01;;;;;;;12.98;5.55;;;;;;;5.23;76.28;101414.44;3542220;40;20089;-43
2021/04/23 00:43:32;;;;;;;12.57;5.88;;;;;;;5.21;75.71;101403.28;3542207;40;20058;-42
2021/04/23 00:45:59;;;;;;;12.82;5.18;;;;;;;5.28;76.63;101407.94;3542296;40;20118;-42
2021/04/23 00:48:26;;;;;;;13.43;5.45;;;;;;;5.24;75.95;101411.09;3542317;40;20057;-43
2021/04/23 00:50:56;;;;;;;14.55;5.53;;;;;;;5.20;76.73;101405.75;3542265;40;20649;-44
2021/04/23 00:53:27;;;;;;;8.32;5.43;;;;;;;5.28;76.22;101407.09;3542181;40;20062;-41
2021/04/23 00:55:57;;;;;;;13.90;4.95;;;;;;;5.58;75.23;101406.28;3542243;40;20081;-46
2021/04/23 00:58:27;;;;;;;16.33;6.10;;;;;;;5.65;75.08;101402.44;3557476;40;20302;-43
2021/04/23 01:01:04;;;;;;;13.07;5.45;;;;;;;5.61;74.56;101400.53;3574261;40;20054;-43
2021/04/23 01:03:32;;;;;;;17.63;5.72;;;;;;;5.47;76.04;101402.28;3574107;40;20065;-43
2021/04/23 01:05:59;;;;;;;13.00;5.53;;;;;;;5.59;75.36;101410.59;3574095;40;20098;-45
2021/04/23 01:08:27;;;;;;;13.68;5.28;;;;;;;5.29;77.04;101408.81;3573828;40;20093;-43
2021/04/23 01:10:56;;;;;;;8.95;5.10;;;;;;;5.55;75.92;101405.25;3574107;40;20056;-44
2021/04/23 01:13:28;;;;;;;11.00;5.70;;;;;;;5.22;77.01;101406.69;3573242;40;20055;-45
2021/04/23 01:15:54;;;;;;;18.88;5.80;;;;;;;5.29;76.84;101404.63;3574206;40;20129;-44
2021/04/23 01:18:21;;;;;;;17.95;6.13;;;;;;;5.05;78.00;101413.34;3574195;40;20123;-46
2021/04/23 01:20:48;;;;;;;13.20;5.75;;;;;;;5.31;76.85;101409.78;3574582;40;20422;-49
2021/04/23 01:23:15;;;;;;;17.95;6.15;;;;;;;5.45;75.93;101410.56;3573905;40;20138;-44
2021/04/23 01:25:42;;;;;;;18.58;6.22;;;;;;;5.21;77.13;101410.91;3572513;40;20092;-43
2021/04/23 01:28:08;;;;;;;19.65;7.15;;;;;;;5.15;78.44;101413.09;3573330;40;20089;-46
2021/04/23 01:30:35;;;;;;;13.27;5.80;;;;;;;5.33;77.25;101405.69;3573688;40;20057;-45
2021/04/23 01:33:02;;;;;;;18.20;5.82;;;;;;;5.15;77.31;101417.31;3573725;40;20113;-45
2021/04/23 01:35:28;;;;;;;12.98;5.97;;;;;;;5.18;77.90;101407.34;3574021;40;20119;-45
2021/04/23 01:37:55;;;;;;;15.93;6.70;;;;;;;5.16;78.16;101414.84;3573427;40;20065;-43
2021/04/23 01:40:22;;;;;;;16.70;6.25;;;;;;;5.07;79.60;101409.22;3574320;40;20407;-44
2021/04/23 01:42:49;;;;;;;15.35;5.78;;;;;;;5.26;78.49;101412.06;3574234;40;20056;-44
2021/04/23 01:45:17;;;;;;;14.50;6.50;;;;;;;5.17;79.01;101408.97;3573813;40;20353;-45
2021/04/23 01:47:45;;;;;;;13.60;5.93;;;;;;;5.36;78.37;101403.31;3572351;40;20103;-45
2021/04/23 01:50:17;;;;;;;14.77;6.78;;;;;;;5.36;77.91;101416.91;3573916;40;20048;-44
2021/04/23 01:52:43;;;;;;;16.25;6.68;;;;;;;5.33;78.52;101414.16;3572063;40;20097;-43
2021/04/23 01:55:12;;;;;;;15.23;6.53;;;;;;;5.41;78.13;101418.81;3574025;40;20491;-42
2021/04/23 01:57:38;;;;;;;13.60;6.45;;;;;;;5.45;78.11;101415.66;3573746;40;20097;-45
2021/04/23 02:00:14;;;;;;;12.95;6.18;;;;;;;5.48;78.24;101419.25;3573660;40;20045;-42
2021/04/23 02:02:41;;;;;;;17.13;6.78;;;;;;;5.65;77.21;101419.38;3573771;40;20364;-45
2021/04/23 02:05:09;;;;;;;13.00;6.50;;;;;;;5.53;77.91;101420.41;3573170;40;20437;-42
2021/04/23 02:07:36;;;;;;;16.48;6.38;;;;;;;5.60;77.85;101419.09;3574052;40;20061;-43
2021/04/23 02:10:08;;;;;;;15.65;6.35;;;;;;;5.69;77.96;101422.16;3574119;40;20346;-42
2021/04/23 02:12:35;;;;;;;15.77;7.32;;;;;;;5.84;76.88;101417.94;3574901;40;20096;-44
2021/04/23 02:15:03;;;;;;;19.65;6.30;;;;;;;5.77;77.88;101425.13;3578069;40;20100;-43
2021/04/23 02:17:29;;;;;;;23.00;7.00;;;;;;;5.55;78.50;101423.03;3578811;40;20401;-43
2021/04/23 02:19:56;;;;;;;15.90;6.82;;;;;;;5.69;77.73;101427.25;3575444;40;20138;-41
2021/04/23 02:22:23;;;;;;;16.80;6.72;;;;;;;5.79;77.87;101426.09;3574439;40;20068;-45
2021/04/23 02:24:49;;;;;;;20.45;7.03;;;;;;;5.74;77.75;101424.97;3573956;40;20482;-42
2021/04/23 02:27:16;;;;;;;14.45;6.50;;;;;;;5.74;77.69;101424.97;3573956;40;20123;-42
2021/04/23 02:29:42;;;;;;;11.38;6.43;;;;;;;6.02;76.64;101430.84;3571126;40;20426;-42
2021/04/23 02:32:09;;;;;;;11.98;6.70;;;;;;;5.91;77.05;101425.91;3572464;40;20076;-42
2021/04/23 02:34:35;;;;;;;17.42;7.03;;;;;;;5.91;77.18;101431.00;3572985;40;20057;-42
2021/04/23 02:37:02;;;;;;;17.15;7.57;;;;;;;6.05;75.69;101428.44;3573649;40;20366;-43
2021/04/23 02:39:28;;;;;;;15.23;6.43;;;;;;;5.95;75.93;101432.94;3573514;40;20362;-42
2021/04/23 02:41:55;;;;;;;15.13;6.45;;;;;;;5.92;77.01;101431.13;3573268;40;20412;-42
2021/04/23 02:44:25;;;;;;;17.02;6.93;;;;;;;5.79;76.84;101428.66;3573258;40;20406;-44
2021/04/23 02:46:52;;;;;;;14.73;6.28;;;;;;;5.79;77.31;101434.59;3574032;40;20053;-44
2021/04/23 02:49:18;;;;;;;13.82;6.25;;;;;;;5.97;76.58;101434.81;3572513;40;20057;-44
2021/04/23 02:51:51;;;;;;;20.02;6.70;;;;;;;6.00;77.17;101436.63;3573561;40;20049;-45
2021/04/23 02:54:21;;;;;;;14.85;6.35;;;;;;;6.02;75.70;101437.59;3571828;40;20495;-47
2021/04/23 02:56:48;;;;;;;14.32;6.93;;;;;;;6.01;76.45;101443.44;3573553;40;20056;-43
2021/04/23 02:59:16;;;;;;;21.77;7.65;;;;;;;5.77;77.36;101441.25;3573319;40;20419;-44
2021/04/23 03:01:47;;;;;;;16.55;6.80;;;;;;;6.06;76.05;101448.03;3571730;40;20049;-43
2021/04/23 03:04:14;;;;;;;13.68;6.65;;;;;;;5.84;76.73;101447.56;3573047;40;20477;-44
2021/04/23 03:06:41;;;;;;;13.50;6.53;;;;;;;5.96;76.48;101449.94;3573499;40;20112;-45
2021/04/23 03:09:08;;;;;;;14.55;5.90;;;;;;;6.04;76.49;101452.13;3572976;40;20315;-43
2021/04/23 03:11:39;;;;;;;17.52;7.53;;;;;;;5.83;76.44;101445.81;3573018;40;20065;-44
2021/04/23 03:14:06;;;;;;;19.52;6.60;;;;;;;6.05;75.59;101450.47;3572909;40;20053;-42
2021/04/23 03:16:35;;;;;;;20.38;6.88;;;;;;;5.81;76.56;101452.47;3573109;40;20132;-43
2021/04/23 03:19:03;;;;;;;12.00;6.60;;;;;;;5.90;76.83;101447.91;3572783;40;20098;-44
2021/04/23 03:21:30;;;;;;;17.55;7.45;;;;;;;5.85;76.20;101452.72;3573561;40;20057;-45
2021/04/23 03:23:57;;;;;;;21.23;6.85;;;;;;;5.82;76.56;101455.13;3572814;40;20398;-42
2021/04/23 03:26:25;;;;;;;23.13;8.98;;;;;;;5.92;76.05;101456.53;3572637;40;20056;-43
2021/04/23 03:28:53;;;;;;;14.50;7.05;;;;;;;5.93;76.48;101465.91;3573006;40;20057;-45
2021/04/23 03:31:21;;;;;;;17.42;7.05;;;;;;;5.53;77.50;101461.03;3572077;40;20067;-44
2021/04/23 03:33:48;;;;;;;20.60;7.15;;;;;;;5.74;77.14;101453.78;3572942;40;20508;-47
2021/04/23 03:36:15;;;;;;;17.88;6.45;;;;;;;5.82;77.13;101460.19;3572640;40;20092;-44
2021/04/23 03:38:45;;;;;;;15.85;6.97;;;;;;;5.53;77.97;101458.50;3572728;40;20089;-44
2021/04/23 03:41:20;;;;;;;15.18;7.00;;;;;;;5.77;77.23;101456.50;3572691;40;20069;-45
2021/04/23 03:43:47;;;;;;;17.58;7.28;;;;;;;5.80;76.79;101463.44;3571485;40;20337;-41
2021/04/23 03:46:14;;;;;;;20.38;7.15;;;;;;;5.47;77.86;101463.22;3572834;40;20702;-41
2021/04/23 03:48:42;;;;;;;20.75;7.95;;;;;;;5.57;78.06;101472.25;3573479;40;20068;-41
2021/04/23 03:51:11;;;;;;;14.52;6.53;;;;;;;5.74;77.75;101466.50;3572604;40;20056;-41
2021/04/23 03:53:38;;;;;;;19.00;7.45;;;;;;;5.73;77.75;101459.69;3572800;40;20045;-41
2021/04/23 03:56:07;;;;;;;20.33;7.05;;;;;;;5.77;77.72;101469.19;3572755;40;20053;-41
2021/04/23 03:58:35;;;;;;;16.83;7.00;;;;;;;5.68;78.03;101481.38;3572853;40;20077;-41
2021/04/23 04:01:09;;;;;;;15.13;6.80;;;;;;;5.77;77.81;101476.81;3573081;40;20704;-41
2021/04/23 04:03:37;;;;;;;18.33;7.13;;;;;;;5.56;77.52;101465.44;3572713;40;20080;-41
2021/04/23 04:06:05;;;;;;;23.40;7.53;;;;;;;5.56;78.60;101475.59;3572816;40;20072;-41
2021/04/23 04:08:31;;;;;;;15.93;6.78;;;;;;;5.83;77.18;101474.66;3572794;40;20064;-41
2021/04/23 04:10:59;;;;;;;15.70;7.15;;;;;;;5.55;78.10;101478.94;3572734;40;20068;-40
2021/04/23 04:13:25;;;;;;;16.45;6.60;;;;;;;5.59;78.85;101480.84;3572412;40;20049;-40
2021/04/23 04:15:52;;;;;;;16.92;6.85;;;;;;;5.58;78.59;101476.56;3572645;40;20101;-41
2021/04/23 04:18:20;;;;;;;19.83;8.10;;;;;;;5.52;78.90;101482.16;3570228;40;20044;-41
2021/04/23 04:20:51;;;;;;;18.60;8.05;;;;;;;5.45;79.14;101485.09;3570838;40;20053;-41
2021/04/23 04:23:20;;;;;;;16.00;6.70;;;;;;;5.72;78.23;101495.13;3570654;40;20056;-41
2021/04/23 04:25:50;;;;;;;15.20;6.85;;;;;;;5.90;77.15;101487.72;3572082;40;20089;-41
2021/04/23 04:28:17;;;;;;;16.17;7.40;;;;;;;5.74;78.10;101491.03;3572631;40;20096;-41
2021/04/23 04:30:44;;;;;;;15.90;6.57;;;;;;;5.80;77.93;101499.88;3571116;40;20069;-41
2021/04/23 04:33:12;;;;;;;16.63;6.72;;;;;;;5.76;77.72;101495.41;3572471;40;20472;-42
2021/04/23 04:35:39;;;;;;;16.85;6.53;;;;;;;5.91;78.00;101497.06;3572455;40;20512;-41
2021/04/23 04:38:08;;;;;;;21.35;7.88;;;;;;;5.74;77.93;101496.13;3572627;40;20108;-44
2021/04/23 04:40:36;;;;;;;22.38;7.50;;;;;;;5.73;78.62;101496.88;3572561;40;20093;-42
2021/04/23 04:43:05;;;;;;;13.82;6.72;;;;;;;5.77;79.08;101496.28;3572461;40;20351;-43
2021/04/23 04:45:32;;;;;;;16.92;7.05;;;;;;;5.70;78.51;101502.69;3572387;40;20097;-41
2021/04/23 04:47:59;;;;;;;23.63;7.65;;;;;;;5.93;78.21;101503.19;3573187;40;20084;-43
2021/04/23 04:50:32;;;;;;;17.23;6.43;;;;;;;5.90;78.24;101500.41;3574193;40;20096;-41
2021/04/23 04:53:00;;;;;;;17.67;7.00;;;;;;;5.72;79.31;101505.31;3574192;40;20102;-41
2021/04/23 04:55:29;;;;;;;14.02;7.50;;;;;;;6.00;78.61;101506.13;3574332;40;20334;-43
2021/04/23 04:57:57;;;;;;;15.82;7.32;;;;;;;6.23;77.41;101514.19;3573960;40;20056;-42
2021/04/23 05:00:25;;;;;;;20.20;7.20;;;;;;;6.08;77.77;101509.13;3574221;40;20378;-43
2021/04/23 05:02:53;;;;;;;19.67;8.05;;;;;;;5.69;78.75;101515.31;3574367;40;20089;-43
2021/04/23 05:05:20;;;;;;;16.38;6.97;;;;;;;5.93;77.82;101520.97;3572995;40;20481;-41
2021/04/23 05:07:47;;;;;;;18.38;6.97;;;;;;;5.74;78.98;101522.41;3574097;40;20061;-43
2021/04/23 05:10:14;;;;;;;18.00;7.78;;;;;;;5.98;78.10;101522.09;3574251;40;20075;-41
2021/04/23 05:12:41;;;;;;;16.55;7.10;;;;;;;6.03;77.68;101516.50;3573834;40;20041;-41
2021/04/23 05:15:09;;;;;;;20.20;7.55;;;;;;;5.86;78.10;101522.22;3573487;40;20068;-41
2021/04/23 05:17:37;;;;;;;16.10;7.20;;;;;;;6.06;78.24;101520.88;3574013;40;20057;-40
2021/04/23 05:20:06;;;;;;;19.30;7.78;;;;;;;6.23;77.22;101516.75;3574112;40;20080;-41
2021/04/23 05:22:34;;;;;;;17.55;7.47;;;;;;;6.14;77.71;101522.19;3573820;40;20041;-40
2021/04/23 05:25:03;;;;;;;17.10;7.38;;;;;;;6.11;77.53;101522.03;3573677;40;20093;-40
2021/04/23 05:27:30;;;;;;;18.70;6.63;;;;;;;5.97;77.67;101528.88;3574206;40;20101;-42
2021/04/23 05:29:56;;;;;;;12.57;6.63;;;;;;;6.35;76.91;101532.69;3574006;40;20069;-41
2021/04/23 05:32:23;;;;;;;20.58;7.55;;;;;;;6.31;76.32;101526.56;3574085;40;20061;-41
2021/04/23 05:34:50;;;;;;;22.58;7.78;;;;;;;6.18;77.68;101525.78;3573894;40;20049;-41
2021/04/23 05:37:17;;;;;;;22.77;7.72;;;;;;;6.38;76.48;101540.50;3572710;40;20093;-41
2021/04/23 05:39:44;;;;;;;16.67;7.53;;;;;;;6.23;76.69;101532.00;3571201;40;20111;-41
2021/04/23 05:42:14;;;;;;;16.40;7.28;;;;;;;6.29;76.87;101534.91;3572334;40;20045;-41
2021/04/23 05:44:43;;;;;;;20.23;8.35;;;;;;;6.62;74.74;101535.91;3573905;40;20363;-41
2021/04/23 05:47:11;;;;;;;18.83;7.65;;;;;;;6.28;76.59;101538.22;3572789;40;20470;-43
2021/04/23 05:49:37;;;;;;;20.13;7.05;;;;;;;6.36;76.05;101537.00;3574003;40;20077;-45
2021/04/23 05:52:07;;;;;;;19.90;7.10;;;;;;;6.35;76.20;101535.25;3574010;40;20774;-41
2021/04/23 05:54:34;;;;;;;22.40;7.80;;;;;;;6.39;76.17;101544.81;3573724;40;20057;-41
2021/04/23 05:57:03;;;;;;;15.55;8.23;;;;;;;6.20;77.40;101539.47;3572407;40;20093;-43
2021/04/23 05:59:29;;;;;;;14.02;7.28;;;;;;;6.27;76.51;101541.56;3573591;40;20093;-44
2021/04/23 06:01:56;;;;;;;14.60;6.72;;;;;;;6.46;75.61;101544.34;3572745;40;20052;-41
2021/04/23 06:04:23;;;;;;;16.00;6.82;;;;;;;6.55;74.62;101551.63;3573487;40;20033;-41
2021/04/23 06:06:49;;;;;;;12.90;6.68;;;;;;;6.55;74.16;101549.06;3574074;40;20041;-42
2021/04/23 06:09:16;;;;;;;20.52;7.95;;;;;;;6.73;73.94;101552.63;3574050;40;20415;-41
2021/04/23 06:11:43;;;;;;;16.85;6.63;;;;;;;6.78;74.37;101550.34;3572869;40;20076;-41
2021/04/23 06:14:10;;;;;;;19.77;6.75;;;;;;;6.79;73.68;101549.53;3574579;40;20060;-41
2021/04/23 06:16:36;;;;;;;17.40;6.22;;;;;;;6.96;71.62;101558.09;3574907;40;20057;-41
2021/04/23 06:19:04;;;;;;;15.60;6.78;;;;;;;7.14;70.78;101564.19;3574323;40;20073;-41
2021/04/23 06:21:32;;;;;;;13.68;6.35;;;;;;;7.36;70.11;101568.75;3574280;40;20068;-43
2021/04/23 06:23:59;;;;;;;14.30;6.45;;;;;;;7.29;71.05;101561.56;3573830;40;20346;-44
2021/04/23 06:26:25;;;;;;;19.88;6.78;;;;;;;7.16;71.33;101565.13;3574027;40;20064;-41
2021/04/23 06:28:52;;;;;;;20.02;7.38;;;;;;;7.38;69.98;101567.16;3577177;40;20057;-45
2021/04/23 06:31:19;;;;;;;19.92;7.95;;;;;;;7.33;70.34;101566.91;3572781;40;20154;-41
2021/04/23 06:33:49;;;;;;;14.25;7.50;;;;;;;7.27;70.09;101563.19;3578001;40;20137;-42
2021/04/23 06:36:16;;;;;;;14.63;6.22;;;;;;;7.45;70.39;101573.47;3576792;40;20060;-43
2021/04/23 06:38:43;;;;;;;14.93;6.63;;;;;;;7.60;68.84;101577.69;3572470;40;20063;-41
2021/04/23 06:41:12;;;;;;;16.55;7.43;;;;;;;7.55;69.18;101576.56;3573665;40;20079;-41
2021/04/23 06:43:39;;;;;;;15.27;6.57;;;;;;;7.65;68.70;101580.47;3573517;40;20045;-41
2021/04/23 06:46:06;;;;;;;13.52;7.15;;;;;;;7.50;69.23;101578.00;3573686;40;20071;-41
2021/04/23 06:48:32;;;;;;;17.77;6.32;;;;;;;7.57;69.13;101577.50;3573754;40;20072;-40
2021/04/23 06:51:04;;;;;;;16.63;6.28;;;;;;;7.79;68.21;101573.53;3573573;40;20093;-41
2021/04/23 06:53:32;;;;;;;20.67;6.85;;;;;;;7.72;69.24;101582.53;3573496;40;20056;-40
2021/04/23 06:56:01;;;;;;;19.80;6.53;;;;;;;7.57;67.88;101584.28;3573519;40;20690;-41
2021/04/23 06:58:29;;;;;;;18.38;7.38;;;;;;;7.79;68.47;101583.72;3573635;40;20072;-41
2021/04/23 07:00:55;;;;;;;15.13;6.35;;;;;;;7.82;66.63;101577.09;3573360;40;20053;-41
2021/04/23 07:03:22;;;;;;;18.38;7.93;;;;;;;7.83;67.24;101581.41;3573816;40;20061;-41
2021/04/23 07:05:49;;;;;;;13.13;5.70;;;;;;;7.80;66.72;101572.72;3573367;40;20112;-41
2021/04/23 07:08:15;;;;;;;15.25;6.15;;;;;;;8.00;65.54;101581.41;3573640;40;20318;-40
2021/04/23 07:10:42;;;;;;;14.50;5.28;;;;;;;8.06;66.11;101574.03;3572931;40;20367;-41
2021/04/23 07:13:09;;;;;;;12.57;5.63;;;;;;;8.11;64.82;101578.56;3572631;40;20080;-42
2021/04/23 07:15:36;;;;;;;12.20;5.32;;;;;;;8.17;64.06;101585.66;3573369;40;20096;-41
2021/04/23 07:18:03;;;;;;;15.20;4.88;;;;;;;8.10;63.86;101584.47;3573305;40;20053;-41
2021/04/23 07:20:34;;;;;;;13.40;4.90;;;;;;;8.08;64.20;101580.09;3573212;40;20057;-41
2021/04/23 07:23:02;;;;;;;13.30;4.85;;;;;;;8.07;63.99;101588.53;3573065;40;20159;-41
2021/04/23 07:25:29;;;;;;;11.80;4.00;;;;;;;8.40;63.22;101594.47;3573116;40;20064;-41
2021/04/23 07:27:59;;;;;;;11.57;4.88;;;;;;;8.57;62.92;101587.63;3573447;40;20065;-42
2021/04/23 07:30:29;;;;;;;13.20;4.72;;;;;;;8.60;61.37;101600.56;3573529;40;20057;-41
2021/04/23 07:32:57;;;;;;;12.60;4.60;;;;;;;8.50;61.47;101594.09;3573367;40;20218;-42
2021/04/23 07:35:25;;;;;;;11.77;5.20;;;;;;;8.66;61.92;101601.72;3573529;40;20085;-41
2021/04/23 07:37:51;;;;;;;12.52;4.28;;;;;;;8.72;60.17;101606.25;3573244;40;20077;-41
2021/04/23 07:40:19;;;;;;;11.55;4.25;;;;;;;8.64;61.36;101599.88;3571530;40;20119;-41
2021/04/23 07:42:47;;;;;;;15.52;4.57;;;;;;;9.02;59.74;101613.63;3573265;40;20087;-41
2021/04/23 07:45:15;;;;;;;12.48;4.65;;;;;;;8.75;60.41;101613.19;3573077;40;20053;-43
2021/04/23 07:47:48;;;;;;;15.23;5.00;;;;;;;9.09;58.70;101606.28;3571737;40;20041;-41
2021/04/23 07:50:18;;;;;;;11.20;4.95;;;;;;;9.08;58.51;101611.34;3573148;40;20343;-41
2021/04/23 07:52:45;;;;;;;6.97;3.88;;;;;;;9.23;58.16;101603.50;3571331;40;20063;-43
2021/04/23 07:55:14;;;;;;;15.02;4.00;;;;;;;9.37;57.47;101600.75;3573274;40;20439;-41
2021/04/23 07:57:44;;;;;;;15.65;4.78;;;;;;;9.05;58.40;101612.06;3571331;40;20051;-41
2021/04/23 08:00:12;;;;;;;9.98;4.00;;;;;;;8.85;60.11;101618.78;3573216;40;20365;-41
2021/04/23 08:02:40;;;;;;;11.75;4.53;;;;;;;9.07;59.10;101623.25;3573104;40;20051;-41
2021/04/23 08:05:14;;;;;;;11.75;4.30;;;;;;;9.75;56.36;101618.59;3572397;40;20053;-41
2021/04/23 08:07:59;;;;;;;14.68;4.28;;;;;;;9.92;55.11;101628.75;3572336;40;20049;-41
2021/04/23 08:10:25;;;;;;;14.45;3.90;;;;;;;9.83;55.37;101625.81;3573239;40;20057;-41
2021/04/23 08:12:52;;;;;;;9.52;3.80;;;;;;;10.01;54.54;101618.06;3572904;40;20429;-43
2021/04/23 08:15:23;;;;;;;12.70;4.82;;;;;;;10.09;54.89;101624.38;3571645;40;20060;-41
2021/04/23 08:17:51;;;;;;;10.10;4.10;;;;;;;10.35;53.81;101622.06;3572823;40;20745;-40
2021/04/23 08:20:18;;;;;;;8.38;3.90;;;;;;;10.27;54.56;101623.44;3571455;40;20053;-43
2021/04/23 08:22:45;;;;;;;8.35;3.72;;;;;;;10.25;55.46;101631.03;3573254;40;20683;-43
2021/04/23 08:25:13;;;;;;;12.48;3.85;;;;;;;10.63;52.42;101624.06;3574494;40;20071;-41
2021/04/23 08:27:40;;;;;;;11.32;4.00;;;;;;;10.91;52.22;101623.50;3574609;40;20500;-41
2021/04/23 08:30:09;;;;;;;11.85;3.78;;;;;;;10.54;51.86;101616.91;3573868;40;20056;-41
2021/04/23 08:32:36;;;;;;;9.55;3.58;;;;;;;10.93;51.01;101627.84;3574212;40;20343;-41
2021/04/23 08:35:08;;;;;;;10.82;3.65;;;;;;;11.83;48.99;101630.41;3574481;40;20687;-41
2021/04/23 08:37:35;;;;;;;13.02;4.07;;;;;;;11.66;49.49;101623.75;3574626;40;20060;-40
2021/04/23 08:40:04;;;;;;;11.32;4.03;;;;;;;11.34;49.00;101636.25;3574371;40;20056;-43
2021/04/23 08:42:32;;;;;;;14.90;3.67;;;;;;;12.57;46.39;101632.88;3574262;40;20049;-41
2021/04/23 08:44:59;;;;;;;9.27;3.10;;;;;;;14.53;42.13;101629.16;3574376;40;20053;-41
2021/04/23 08:47:26;;;;;;;9.00;3.25;;;;;;;14.00;43.10;101637.22;3574406;40;20068;-44
2021/04/23 08:49:58;;;;;;;12.13;3.83;;;;;;;13.25;43.88;101635.09;3574620;40;20059;-41
2021/04/23 08:52:25;;;;;;;8.95;3.13;;;;;;;13.18;46.11;101643.41;3574417;40;20033;-41
2021/04/23 08:54:55;;;;;;;11.10;3.22;;;;;;;12.90;46.82;101646.84;3574422;40;20049;-43
2021/04/23 08:57:24;;;;;;;9.85;3.50;;;;;;;11.69;48.38;101645.28;3573040;40;20052;-41
2021/04/23 08:59:51;;;;;;;14.15;4.43;;;;;;;12.14;47.14;101654.56;3574600;40;20448;-41
2021/04/23 09:02:18;;;;;;;11.43;3.75;;;;;;;11.69;48.91;101640.16;3572818;40;20451;-43
2021/04/23 09:04:45;;;;;;;12.90;3.58;;;;;;;11.89;48.70;101640.00;3574265;40;20057;-41
2021/04/23 09:07:11;;;;;;;8.63;3.30;;;;;;;11.50;50.62;101647.97;3574362;40;20049;-41
2021/04/23 09:09:40;;;;;;;15.95;3.72;;;;;;;11.43;49.78;101638.31;3574350;40;20072;-41
2021/04/23 09:12:16;;;;;;;15.02;4.13;;;;;;;11.60;49.93;101652.63;3573414;40;20329;-42
2021/04/23 09:14:44;;;;;;;8.27;3.28;;;;;;;10.44;50.61;101648.94;3572741;40;20051;-42
2021/04/23 09:17:11;;;;;;;10.35;3.08;;;;;;;11.34;50.92;101648.22;3574412;40;20061;-42
2021/04/23 09:19:38;;;;;;;10.70;3.47;;;;;;;11.28;49.39;101646.31;3574303;40;20154;-41
2021/04/23 09:22:19;;;;;;;11.93;3.80;;;;;;;11.94;48.01;101651.31;3574107;40;20073;-41
2021/04/23 09:24:54;;;;;;;11.60;3.72;;;;;;;12.04;47.49;101647.38;3572750;40;20088;-41
2021/04/23 09:27:25;;;;;;;12.50;2.85;;;;;;;12.38;48.95;101651.97;3572443;40;20049;-41
2021/04/23 09:29:55;;;;;;;7.53;3.53;;;;;;;12.79;46.79;101655.91;3574170;40;20134;-42
2021/04/23 09:32:26;;;;;;;11.15;3.33;;;;;;;12.86;47.11;101657.84;3572802;40;20053;-41
2021/04/23 09:34:59;;;;;;;11.38;3.47;;;;;;;13.03;45.39;101663.50;3573613;40;20049;-41
2021/04/23 09:37:28;;;;;;;9.55;3.10;;;;;;;12.83;45.34;101656.88;3574363;40;20048;-41
2021/04/23 09:40:11;;;;;;;10.75;3.70;;;;;;;12.54;46.47;101654.22;3574040;40;20076;-41
2021/04/23 09:42:52;;;;;;;9.30;3.53;;;;;;;13.17;45.69;101654.53;3573892;40;20068;-41
2021/04/23 09:45:21;;;;;;;9.13;3.10;;;;;;;13.84;43.81;101655.66;3572278;40;20111;-42
2021/04/23 09:47:49;;;;;;;8.10;3.15;;;;;;;14.06;43.23;101653.69;3574016;40;20085;-42
2021/04/23 09:50:17;;;;;;;8.82;3.08;;;;;;;16.01;40.50;101650.47;3573746;40;20084;-42
2021/04/23 09:52:51;;;;;;;10.00;3.15;;;;;;;17.53;36.16;101651.16;3572215;40;20328;-41
2021/04/23 09:55:20;;;;;;;7.50;3.30;;;;;;;19.80;32.05;101669.47;3573886;40;20415;-43
2021/04/23 09:57:59;;;;;;;7.63;3.20;;;;;;;19.29;33.99;101662.28;3572524;40;20154;-42
2021/04/23 10:00:29;;;;;;;7.40;3.00;;;;;;;18.32;34.24;101666.75;3573110;40;20171;-44
2021/04/23 10:02:58;;;;;;;5.50;2.80;;;;;;;20.23;31.27;101671.31;3573766;40;20089;-42
2021/04/23 10:05:42;;;;;;;8.68;3.63;;;;;;;21.34;29.77;101667.81;3574161;40;20097;-42
2021/04/23 10:08:25;;;;;;;7.80;2.97;;;;;;;17.78;33.03;101667.88;3573221;40;20037;-42
2021/04/23 10:10:58;;;;;;;6.97;2.90;;;;;;;18.20;34.31;101668.34;3572960;40;20060;-42
2021/04/23 10:13:29;;;;;;;6.82;3.05;;;;;;;20.96;28.89;101683.50;3572672;40;20328;-42
2021/04/23 10:15:56;;;;;;;9.73;2.88;;;;;;;21.17;29.11;101687.78;3574110;40;20060;-45
2021/04/23 10:18:24;;;;;;;8.13;2.78;;;;;;;19.34;30.68;101670.97;3573717;40;20052;-44
2021/04/23 10:20:52;;;;;;;6.60;2.80;;;;;;;19.72;30.64;101672.91;3573754;40;20053;-42
2021/04/23 10:23:22;;;;;;;9.98;2.60;;;;;;;22.34;28.28;101676.91;3571968;40;20064;-43
2021/04/23 10:25:50;;;;;;;9.45;2.75;;;;;;;22.20;26.67;101670.91;3573688;40;20089;-42
2021/04/23 10:28:20;;;;;;;6.63;2.95;;;;;;;21.85;27.60;101665.88;3573817;40;20053;-42
2021/04/23 10:30:50;;;;;;;8.07;2.72;;;;;;;24.00;24.78;101677.81;3572502;40;20065;-42
2021/04/23 10:33:19;;;;;;;7.80;2.88;;;;;;;25.78;22.56;101688.69;3573331;40;20366;-43
2021/04/23 10:35:48;;;;;;;8.02;2.67;;;;;;;25.38;22.63;101679.88;3571914;40;20037;-42
2021/04/23 10:38:21;;;;;;;9.38;3.28;;;;;;;21.69;26.23;101672.03;3573421;40;20692;-45
2021/04/23 10:40:59;;;;;;;6.75;2.55;;;;;;;19.43;28.97;101664.97;3572467;40;20072;-44
2021/04/23 10:43:29;;;;;;;7.90;2.75;;;;;;;21.35;27.85;101664.31;3573441;40;20339;-43
2021/04/23 10:45:59;;;;;;;5.80;2.35;;;;;;;24.29;23.97;101685.22;3574481;40;20738;-43
2021/04/23 10:48:49;;;;;;;7.35;2.50;;;;;;;23.95;23.19;101677.00;3574136;40;20743;-46
2021/04/23 10:51:19;;;;;;;8.98;2.60;;;;;;;25.84;21.91;101683.31;3573538;40;20085;-43
2021/04/23 10:53:54;;;;;;;7.00;2.55;;;;;;;22.53;24.23;101667.19;3571883;40;20061;-43
2021/04/23 10:56:22;;;;;;;6.70;2.53;;;;;;;24.21;23.41;101674.84;3571873;40;20059;-43
2021/04/23 10:58:50;;;;;;;9.35;2.60;;;;;;;26.83;20.93;101680.94;3573449;40;20055;-46
2021/04/23 11:01:16;;;;;;;10.13;2.80;;;;;;;25.96;20.93;101675.16;3573856;40;22136;-42
2021/04/23 11:04:04;;;;;;;7.90;2.50;;;;;;;23.12;24.40;101673.63;3572011;40;20061;-45
2021/04/23 11:06:34;;;;;;;7.32;2.38;;;;;;;24.74;22.54;101683.66;3572661;40;20089;-45
2021/04/23 11:09:00;;;;;;;4.63;1.92;;;;;;;25.45;20.05;101675.34;3573846;40;20315;-45
2021/04/23 11:11:31;;;;;;;8.13;2.08;;;;;;;26.03;19.63;101681.16;3573711;40;20064;-46
2021/04/23 11:14:27;;;;;;;4.40;2.22;;;;;;;22.98;24.26;101675.50;3573602;40;20064;-43
2021/04/23 11:17:14;;;;;;;7.05;2.30;;;;;;;21.39;25.87;101675.63;3572725;40;20051;-43
2021/04/23 11:19:41;;;;;;;9.48;2.63;;;;;;;23.06;24.17;101676.31;3573367;40;20445;-44
2021/04/23 11:22:13;;;;;;;8.13;2.38;;;;;;;21.13;27.31;101666.13;3563329;40;20081;-42
2021/04/23 11:24:58;;;;;;;9.68;2.95;;;;;;;21.74;27.11;101670.28;3573537;40;20205;-43
2021/04/23 11:27:25;;;;;;;8.23;2.10;;;;;;;20.85;27.38;101673.13;3573501;40;20060;-41
2021/04/23 11:29:54;;;;;;;8.82;2.72;;;;;;;24.18;21.75;101679.31;3565289;40;20109;-43
2021/04/23 11:32:23;;;;;;;12.13;3.20;;;;;;;25.80;21.54;101681.66;3571913;40;20454;-45